Time;durP1;ratioP1;P1;durP2;ratioP2;P2;SDS_P1;SDS_P2;PMS_P1;PMS_P2;Temp;Humidity;BMP_temperature;BMP_pressure;BME280_temperature;BME280_humidity;BME280_pressure;Samples;Min_cycle;Max_cycle;Signal;HPM_P1;HPM_P2
2021/08/16 00:00:32;;;;;;;30.67;4.60;;;;;;;;;;5031054;28;20021;-35
2021/08/16 00:02:59;;;;;;;35.40;4.97;;;;;;;;;;5049976;28;20090;-35
2021/08/16 00:05:26;;;;;;;41.50;5.75;;;;;;;;;;5048810;28;20447;-36
2021/08/16 00:07:53;;;;;;;34.72;4.72;;;;;;;;;;5050137;28;20049;-35
2021/08/16 00:10:20;;;;;;;26.33;4.47;;;;;;;;;;5051698;28;20017;-35
2021/08/16 00:12:48;;;;;;;41.88;4.93;;;;;;;;;;5049378;28;20075;-36
2021/08/16 00:15:15;;;;;;;24.80;4.00;;;;;;;;;;5050051;28;20630;-37
2021/08/16 00:17:42;;;;;;;35.88;4.75;;;;;;;;;;5049707;28;20029;-47
2021/08/16 00:20:09;;;;;;;30.75;4.97;;;;;;;;;;5050673;28;20108;-47
2021/08/16 00:22:36;;;;;;;36.65;5.03;;;;;;;;;;5051166;28;20028;-36
2021/08/16 00:25:04;;;;;;;33.90;4.90;;;;;;;;;;5050450;28;20451;-35
2021/08/16 00:27:31;;;;;;;30.17;3.92;;;;;;;;;;5049988;28;20041;-38
2021/08/16 00:29:58;;;;;;;33.20;5.05;;;;;;;;;;5050098;28;20048;-39
2021/08/16 00:32:25;;;;;;;30.52;5.38;;;;;;;;;;5026903;28;20484;-39
2021/08/16 00:34:52;;;;;;;27.77;4.32;;;;;;;;;;5050846;28;20536;-47
2021/08/16 00:37:19;;;;;;;38.17;4.88;;;;;;;;;;5051279;28;20024;-39
2021/08/16 00:39:46;;;;;;;35.20;4.30;;;;;;;;;;5051178;28;20036;-36
2021/08/16 00:42:13;;;;;;;25.98;4.75;;;;;;;;;;5050588;28;20025;-40
2021/08/16 00:44:41;;;;;;;38.85;6.65;;;;;;;;;;5049265;28;20036;-54
2021/08/16 00:47:08;;;;;;;33.42;8.82;;;;;;;;;;5045854;28;20111;-37
2021/08/16 00:49:36;;;;;;;38.78;10.90;;;;;;;;;;5047260;28;20016;-36
2021/08/16 00:52:04;;;;;;;46.88;12.80;;;;;;;;;;5044250;28;20512;-36
2021/08/16 00:54:31;;;;;;;47.72;13.73;;;;;;;;;;5047776;28;20071;-36
2021/08/16 00:56:59;;;;;;;38.53;12.75;;;;;;;;;;5045850;28;20032;-35
2021/08/16 00:59:27;;;;;;;44.60;12.52;;;;;;;;;;5048401;28;20028;-38
2021/08/16 01:01:57;;;;;;;38.88;11.70;;;;;;;;;;5045265;28;20020;-35
2021/08/16 01:04:31;;;;;;;38.78;11.57;;;;;;;;;;5039531;28;20671;-36
2021/08/16 01:06:58;;;;;;;31.88;10.35;;;;;;;;;;5039940;28;20045;-45
2021/08/16 01:09:25;;;;;;;35.58;11.02;;;;;;;;;;5030203;28;20029;-42
2021/08/16 01:11:52;;;;;;;34.42;10.32;;;;;;;;;;5048507;28;20056;-48
2021/08/16 01:14:20;;;;;;;31.73;10.32;;;;;;;;;;5046879;28;20049;-36
2021/08/16 01:16:50;;;;;;;30.90;9.35;;;;;;;;;;5048422;28;20041;-54
2021/08/16 01:19:20;;;;;;;23.98;9.75;;;;;;;;;;5047192;28;20028;-34
2021/08/16 01:21:47;;;;;;;37.17;8.88;;;;;;;;;;5048358;28;20108;-44
2021/08/16 01:24:15;;;;;;;29.48;8.32;;;;;;;;;;5047571;28;20492;-51
2021/08/16 01:26:43;;;;;;;23.65;8.50;;;;;;;;;;5045383;28;20033;-61
2021/08/16 01:29:23;;;;;;;30.58;7.90;;;;;;;;;;5030150;28;20032;-39
2021/08/16 01:31:51;;;;;;;27.90;7.90;;;;;;;;;;5043918;28;20047;-50
2021/08/16 01:34:18;;;;;;;27.15;8.05;;;;;;;;;;5046645;28;20044;-46
2021/08/16 01:36:45;;;;;;;23.10;8.07;;;;;;;;;;5046569;28;20069;-61
2021/08/16 01:39:14;;;;;;;29.38;8.80;;;;;;;;;;5046139;28;20053;-44
2021/08/16 01:41:41;;;;;;;22.20;7.50;;;;;;;;;;5046127;28;20477;-39
2021/08/16 01:44:14;;;;;;;26.05;7.10;;;;;;;;;;5047817;28;20040;-38
2021/08/16 01:46:42;;;;;;;21.88;6.68;;;;;;;;;;5047368;28;20032;-42
2021/08/16 01:49:09;;;;;;;27.52;7.00;;;;;;;;;;5043825;28;20060;-39
2021/08/16 01:51:36;;;;;;;19.70;6.90;;;;;;;;;;5046005;28;20028;-35
2021/08/16 01:54:07;;;;;;;21.38;6.03;;;;;;;;;;5043629;28;20033;-47
2021/08/16 01:56:34;;;;;;;20.80;6.20;;;;;;;;;;5049120;28;20017;-38
2021/08/16 01:59:01;;;;;;;23.90;6.20;;;;;;;;;;5046903;28;20025;-38
2021/08/16 02:01:28;;;;;;;21.25;5.60;;;;;;;;;;5045804;28;20078;-39
2021/08/16 02:03:55;;;;;;;17.77;5.07;;;;;;;;;;5045967;28;20083;-36
2021/08/16 02:06:22;;;;;;;19.70;5.20;;;;;;;;;;5045120;28;20371;-37
2021/08/16 02:08:49;;;;;;;23.73;5.15;;;;;;;;;;5046978;28;20036;-42
2021/08/16 02:11:16;;;;;;;16.42;5.18;;;;;;;;;;5046192;28;20107;-34
2021/08/16 02:13:43;;;;;;;19.00;4.82;;;;;;;;;;5046624;28;20579;-44
2021/08/16 02:16:11;;;;;;;23.40;4.85;;;;;;;;;;5045251;28;20021;-51
2021/08/16 02:18:38;;;;;;;19.77;4.25;;;;;;;;;;5045997;28;20104;-62
2021/08/16 02:21:05;;;;;;;18.80;5.18;;;;;;;;;;5046132;28;20026;-44
2021/08/16 02:23:32;;;;;;;18.77;4.35;;;;;;;;;;5030262;28;20067;-44
2021/08/16 02:25:59;;;;;;;18.42;4.35;;;;;;;;;;5046967;28;20017;-40
2021/08/16 02:28:26;;;;;;;14.02;3.92;;;;;;;;;;5042648;28;20083;-52
2021/08/16 02:30:53;;;;;;;9.90;3.45;;;;;;;;;;5047001;28;20033;-49
2021/08/16 02:33:20;;;;;;;20.55;3.90;;;;;;;;;;5046339;28;20058;-41
2021/08/16 02:35:47;;;;;;;20.58;4.18;;;;;;;;;;5045961;28;20493;-59
2021/08/16 02:38:14;;;;;;;14.77;3.67;;;;;;;;;;5051160;28;20033;-45
2021/08/16 02:40:41;;;;;;;16.50;4.32;;;;;;;;;;5049931;28;20032;-58
2021/08/16 02:43:08;;;;;;;14.45;3.70;;;;;;;;;;5049500;28;20108;-36
2021/08/16 02:45:36;;;;;;;13.45;3.60;;;;;;;;;;5050942;28;20025;-46
2021/08/16 02:48:03;;;;;;;15.90;4.53;;;;;;;;;;5050348;28;20037;-47
2021/08/16 02:50:30;;;;;;;24.80;4.13;;;;;;;;;;5047944;28;20163;-45
2021/08/16 02:52:58;;;;;;;15.13;3.60;;;;;;;;;;5050424;28;20093;-36
2021/08/16 02:55:25;;;;;;;13.98;3.40;;;;;;;;;;5049952;28;20033;-40
2021/08/16 02:57:52;;;;;;;12.70;3.63;;;;;;;;;;5047550;28;20017;-49
2021/08/16 03:00:19;;;;;;;13.60;3.65;;;;;;;;;;5050556;28;20391;-62
2021/08/16 03:02:46;;;;;;;11.10;3.20;;;;;;;;;;5050226;28;20191;-38
2021/08/16 03:05:13;;;;;;;15.18;3.10;;;;;;;;;;5050348;28;20392;-51
2021/08/16 03:07:40;;;;;;;13.50;3.20;;;;;;;;;;5046936;28;20108;-47
2021/08/16 03:10:08;;;;;;;15.23;4.10;;;;;;;;;;5050612;28;20032;-48
2021/08/16 03:12:35;;;;;;;12.18;3.00;;;;;;;;;;5049581;28;20476;-58
2021/08/16 03:15:02;;;;;;;13.57;3.20;;;;;;;;;;5049995;28;20058;-50
2021/08/16 03:17:30;;;;;;;11.63;3.15;;;;;;;;;;5046535;28;20036;-36
2021/08/16 03:19:57;;;;;;;12.60;2.90;;;;;;;;;;5047955;28;20045;-36
2021/08/16 03:22:24;;;;;;;13.15;2.92;;;;;;;;;;5048029;28;20021;-36
2021/08/16 03:24:51;;;;;;;10.02;2.70;;;;;;;;;;5051228;28;20017;-35
2021/08/16 03:27:18;;;;;;;13.75;2.60;;;;;;;;;;5051268;28;20048;-36
2021/08/16 03:29:45;;;;;;;11.60;2.42;;;;;;;;;;5050197;28;20028;-35
2021/08/16 03:32:12;;;;;;;15.32;2.80;;;;;;;;;;5049146;28;20031;-36
2021/08/16 03:34:39;;;;;;;12.02;2.95;;;;;;;;;;5047543;28;20025;-36
2021/08/16 03:37:06;;;;;;;8.00;2.70;;;;;;;;;;5047383;28;20041;-40
2021/08/16 03:39:33;;;;;;;9.40;3.17;;;;;;;;;;5047124;28;20508;-35
2021/08/16 03:42:00;;;;;;;14.13;2.50;;;;;;;;;;5045368;28;20049;-41
2021/08/16 03:44:27;;;;;;;12.77;2.80;;;;;;;;;;5048038;28;20028;-39
2021/08/16 03:46:54;;;;;;;11.98;2.25;;;;;;;;;;5049992;28;20021;-39
2021/08/16 03:49:21;;;;;;;15.57;2.88;;;;;;;;;;5049546;28;20017;-65
2021/08/16 03:51:48;;;;;;;10.30;2.42;;;;;;;;;;5050750;28;20019;-45
2021/08/16 03:54:15;;;;;;;13.48;2.58;;;;;;;;;;5050504;28;20025;-36
2021/08/16 03:56:42;;;;;;;11.50;2.15;;;;;;;;;;5051548;28;20012;-36
2021/08/16 03:59:09;;;;;;;13.30;2.65;;;;;;;;;;5049015;28;20017;-35
2021/08/16 04:01:36;;;;;;;14.10;2.75;;;;;;;;;;5050601;28;20033;-44
2021/08/16 04:04:03;;;;;;;17.00;3.10;;;;;;;;;;5049662;28;20021;-35
2021/08/16 04:06:30;;;;;;;14.93;2.40;;;;;;;;;;5033239;28;20033;-36
2021/08/16 04:08:57;;;;;;;22.92;2.20;;;;;;;;;;5049946;28;20028;-36
2021/08/16 04:11:24;;;;;;;53.05;3.55;;;;;;;;;;5051962;28;20017;-35
2021/08/16 04:13:51;;;;;;;25.88;2.38;;;;;;;;;;5051990;28;20033;-48
2021/08/16 04:16:18;;;;;;;19.13;2.78;;;;;;;;;;5051936;28;20017;-36
2021/08/16 04:18:45;;;;;;;17.02;2.55;;;;;;;;;;5051582;28;20540;-39
2021/08/16 04:21:12;;;;;;;26.27;2.92;;;;;;;;;;5033749;28;20443;-56
2021/08/16 04:23:39;;;;;;;31.88;3.15;;;;;;;;;;5033824;28;20036;-37
2021/08/16 04:26:06;;;;;;;27.10;2.80;;;;;;;;;;5052163;28;20029;-36
2021/08/16 04:28:33;;;;;;;17.45;2.70;;;;;;;;;;5042564;28;20040;-41
2021/08/16 04:31:00;;;;;;;21.58;2.67;;;;;;;;;;5051498;28;20140;-35
2021/08/16 04:33:27;;;;;;;15.75;2.53;;;;;;;;;;5051869;28;20021;-34
2021/08/16 04:35:54;;;;;;;18.08;2.47;;;;;;;;;;5051925;28;20037;-34
2021/08/16 04:38:23;;;;;;;19.85;2.33;;;;;;;;;;5051930;28;20024;-34
2021/08/16 04:40:51;;;;;;;22.58;2.85;;;;;;;;;;5052129;28;20028;-34
2021/08/16 04:43:18;;;;;;;19.92;2.90;;;;;;;;;;5050319;28;20033;-35
2021/08/16 04:45:44;;;;;;;16.83;2.40;;;;;;;;;;5052067;28;20032;-35
2021/08/16 04:48:12;;;;;;;19.05;2.35;;;;;;;;;;5051508;28;20147;-34
2021/08/16 04:50:39;;;;;;;20.63;2.53;;;;;;;;;;5051570;28;20020;-36
2021/08/16 04:53:06;;;;;;;16.70;2.65;;;;;;;;;;5051833;28;20464;-35
2021/08/16 04:55:33;;;;;;;14.57;2.10;;;;;;;;;;5051596;28;20017;-39
2021/08/16 04:58:00;;;;;;;14.63;2.53;;;;;;;;;;5033322;28;20028;-35
2021/08/16 05:00:27;;;;;;;14.82;2.30;;;;;;;;;;5050672;28;20009;-35
2021/08/16 05:02:55;;;;;;;9.65;1.95;;;;;;;;;;5033793;28;20050;-58
2021/08/16 05:05:25;;;;;;;17.20;2.42;;;;;;;;;;5050988;28;20017;-56
2021/08/16 05:07:53;;;;;;;11.45;2.03;;;;;;;;;;5051289;28;20129;-58
2021/08/16 05:10:24;;;;;;;13.73;2.55;;;;;;;;;;5051711;28;20018;-50
2021/08/16 05:12:52;;;;;;;11.55;1.60;;;;;;;;;;5051495;28;20021;-55
2021/08/16 05:15:20;;;;;;;6.45;1.80;;;;;;;;;;5051213;28;20079;-50
2021/08/16 05:17:47;;;;;;;12.18;1.92;;;;;;;;;;5051348;28;20089;-54
2021/08/16 05:20:15;;;;;;;13.05;2.15;;;;;;;;;;5051229;28;20384;-45
2021/08/16 05:22:44;;;;;;;12.23;1.90;;;;;;;;;;5050568;28;20017;-55
2021/08/16 05:25:11;;;;;;;8.77;1.75;;;;;;;;;;5050138;28;20028;-55
2021/08/16 05:27:39;;;;;;;5.47;1.90;;;;;;;;;;5049505;28;20032;-53
2021/08/16 05:30:07;;;;;;;9.23;1.90;;;;;;;;;;5050410;28;20056;-35
2021/08/16 05:32:34;;;;;;;8.75;1.95;;;;;;;;;;5051030;28;20112;-37
2021/08/16 05:35:01;;;;;;;6.30;1.77;;;;;;;;;;5041240;28;20109;-43
2021/08/16 05:37:28;;;;;;;6.88;1.98;;;;;;;;;;5050314;28;20476;-36
2021/08/16 05:39:55;;;;;;;13.93;2.10;;;;;;;;;;5049418;28;20060;-55
2021/08/16 05:42:22;;;;;;;7.20;1.77;;;;;;;;;;5049483;28;20103;-52
2021/08/16 05:44:49;;;;;;;6.97;2.17;;;;;;;;;;5050070;28;20009;-36
2021/08/16 05:47:16;;;;;;;9.48;1.65;;;;;;;;;;5051067;28;20021;-34
2021/08/16 05:49:43;;;;;;;7.30;1.60;;;;;;;;;;5049302;28;20021;-35
2021/08/16 05:52:10;;;;;;;4.45;1.60;;;;;;;;;;5050883;28;20025;-37
2021/08/16 05:54:37;;;;;;;8.75;1.95;;;;;;;;;;5050666;28;20116;-35
2021/08/16 05:57:04;;;;;;;6.88;1.90;;;;;;;;;;5050995;28;20048;-35
2021/08/16 05:59:31;;;;;;;5.40;1.42;;;;;;;;;;5050629;28;20005;-39
2021/08/16 06:01:58;;;;;;;4.30;1.58;;;;;;;;;;5051013;28;20096;-38
2021/08/16 06:04:25;;;;;;;5.30;1.35;;;;;;;;;;5050810;28;20021;-34
2021/08/16 06:06:52;;;;;;;4.57;1.50;;;;;;;;;;5050722;28;20048;-39
2021/08/16 06:09:19;;;;;;;6.40;1.50;;;;;;;;;;5033178;28;20029;-34
2021/08/16 06:11:46;;;;;;;8.00;1.98;;;;;;;;;;5052873;28;20075;-35
2021/08/16 06:14:13;;;;;;;6.05;1.52;;;;;;;;;;5055034;28;20021;-38
2021/08/16 06:16:41;;;;;;;5.15;1.60;;;;;;;;;;5054770;28;20017;-35
2021/08/16 06:19:08;;;;;;;4.72;1.67;;;;;;;;;;5020871;28;20436;-37
2021/08/16 06:21:40;;;;;;;3.95;1.55;;;;;;;;;;5054691;28;20031;-35
2021/08/16 06:24:07;;;;;;;3.53;1.20;;;;;;;;;;5054870;28;20021;-34
2021/08/16 06:26:34;;;;;;;5.70;1.52;;;;;;;;;;5054652;28;20051;-40
2021/08/16 06:29:01;;;;;;;5.68;1.35;;;;;;;;;;5054567;28;20036;-42
2021/08/16 06:31:29;;;;;;;4.32;1.30;;;;;;;;;;5054598;28;20021;-41
2021/08/16 06:33:56;;;;;;;8.18;1.40;;;;;;;;;;5041167;28;20017;-38
2021/08/16 06:36:23;;;;;;;2.88;1.17;;;;;;;;;;5054481;28;20053;-40
2021/08/16 06:38:50;;;;;;;4.80;1.45;;;;;;;;;;5054224;28;20025;-36
2021/08/16 06:41:18;;;;;;;4.65;1.50;;;;;;;;;;5054480;28;20028;-35
2021/08/16 06:43:48;;;;;;;5.25;1.40;;;;;;;;;;5053968;28;20017;-38
2021/08/16 06:46:16;;;;;;;3.88;1.40;;;;;;;;;;5054534;28;20021;-46
2021/08/16 06:48:43;;;;;;;2.42;1.10;;;;;;;;;;5054106;28;20040;-41
2021/08/16 06:51:10;;;;;;;3.25;1.17;;;;;;;;;;5054471;28;20021;-38
2021/08/16 06:53:37;;;;;;;4.43;1.35;;;;;;;;;;5052449;28;20025;-40
2021/08/16 06:56:04;;;;;;;4.95;1.20;;;;;;;;;;5053427;28;20377;-41
2021/08/16 06:58:32;;;;;;;5.10;1.40;;;;;;;;;;5053559;28;20465;-38
2021/08/16 07:01:00;;;;;;;4.05;1.25;;;;;;;;;;5053419;28;20052;-34
2021/08/16 07:03:29;;;;;;;4.43;1.60;;;;;;;;;;5053566;28;20491;-33
2021/08/16 07:05:56;;;;;;;4.13;1.30;;;;;;;;;;5053639;28;20120;-34
2021/08/16 07:08:23;;;;;;;4.45;1.33;;;;;;;;;;5053435;28;20037;-34
2021/08/16 07:10:50;;;;;;;2.83;1.35;;;;;;;;;;5053281;28;20024;-34
2021/08/16 07:13:17;;;;;;;4.70;1.50;;;;;;;;;;5053388;28;20013;-34
2021/08/16 07:15:44;;;;;;;5.22;1.25;;;;;;;;;;5053311;28;20542;-34
2021/08/16 07:18:11;;;;;;;6.32;1.25;;;;;;;;;;5053093;28;20024;-34
2021/08/16 07:20:39;;;;;;;4.68;1.30;;;;;;;;;;5053159;28;20021;-34
2021/08/16 07:23:05;;;;;;;4.15;1.23;;;;;;;;;;5052656;28;20235;-36
2021/08/16 07:25:33;;;;;;;3.45;1.23;;;;;;;;;;5052827;28;20028;-35
2021/08/16 07:28:00;;;;;;;2.97;1.10;;;;;;;;;;5052797;28;20116;-34
2021/08/16 07:30:27;;;;;;;7.03;1.40;;;;;;;;;;5053035;28;20480;-34
2021/08/16 07:32:54;;;;;;;5.10;1.40;;;;;;;;;;5052838;28;20063;-35
2021/08/16 07:35:22;;;;;;;2.80;1.38;;;;;;;;;;5052819;28;20029;-37
2021/08/16 07:37:49;;;;;;;7.40;1.15;;;;;;;;;;5052920;28;20033;-34
2021/08/16 07:40:17;;;;;;;3.08;1.20;;;;;;;;;;5052572;28;21027;-57
2021/08/16 07:42:44;;;;;;;1.75;1.17;;;;;;;;;;5052872;28;20108;-52
2021/08/16 07:45:11;;;;;;;5.63;1.40;;;;;;;;;;5052725;28;20017;-57
2021/08/16 07:47:39;;;;;;;3.47;1.30;;;;;;;;;;5052624;28;20079;-57
2021/08/16 07:50:09;;;;;;;3.72;1.00;;;;;;;;;;5052473;28;20029;-56
2021/08/16 07:52:37;;;;;;;4.38;1.23;;;;;;;;;;5052896;28;20032;-57
2021/08/16 07:55:05;;;;;;;5.00;1.45;;;;;;;;;;5052477;28;20066;-55
2021/08/16 07:57:32;;;;;;;6.65;1.63;;;;;;;;;;5052251;28;20020;-49
2021/08/16 08:00:00;;;;;;;3.40;1.08;;;;;;;;;;5052640;28;20017;-55
2021/08/16 08:02:27;;;;;;;1.88;1.10;;;;;;;;;;5052338;28;20469;-57
2021/08/16 08:04:54;;;;;;;3.67;1.33;;;;;;;;;;5040385;28;20021;-48
2021/08/16 08:07:21;;;;;;;4.38;1.15;;;;;;;;;;5052257;28;20071;-41
2021/08/16 08:09:48;;;;;;;4.90;1.20;;;;;;;;;;5052058;28;20036;-55
2021/08/16 08:12:15;;;;;;;3.05;1.10;;;;;;;;;;5052233;28;20502;-46
2021/08/16 08:14:42;;;;;;;4.65;1.20;;;;;;;;;;5052130;28;20078;-46
2021/08/16 08:17:09;;;;;;;2.72;1.10;;;;;;;;;;5052056;28;20013;-50
2021/08/16 08:19:36;;;;;;;4.28;1.10;;;;;;;;;;5051843;28;20070;-54
2021/08/16 08:22:03;;;;;;;3.58;1.52;;;;;;;;;;5052263;28;20472;-43
2021/08/16 08:24:30;;;;;;;2.10;1.55;;;;;;;;;;5051876;28;20071;-54
2021/08/16 08:26:57;;;;;;;3.75;1.63;;;;;;;;;;5049116;28;20017;-35
2021/08/16 08:29:25;;;;;;;3.22;1.33;;;;;;;;;;5052034;28;20029;-50
2021/08/16 08:31:52;;;;;;;3.10;1.10;;;;;;;;;;5051118;28;20143;-50
2021/08/16 08:34:19;;;;;;;1.75;0.90;;;;;;;;;;5051267;28;20501;-45
2021/08/16 08:36:46;;;;;;;1.70;1.23;;;;;;;;;;5051613;28;20040;-35
2021/08/16 08:39:13;;;;;;;3.17;1.33;;;;;;;;;;5051513;28;20033;-35
2021/08/16 08:41:41;;;;;;;2.80;1.00;;;;;;;;;;5051590;28;20802;-39
2021/08/16 08:44:12;;;;;;;3.00;1.27;;;;;;;;;;5051676;28;20453;-39
2021/08/16 08:46:40;;;;;;;2.85;1.10;;;;;;;;;;5051582;28;20028;-40
2021/08/16 08:49:08;;;;;;;5.18;1.20;;;;;;;;;;5051540;28;20322;-46
2021/08/16 08:51:39;;;;;;;3.38;1.20;;;;;;;;;;5051115;28;20032;-35
2021/08/16 08:54:06;;;;;;;5.22;1.20;;;;;;;;;;5051865;28;20025;-36
2021/08/16 08:56:33;;;;;;;7.18;1.52;;;;;;;;;;5051440;28;20075;-35
2021/08/16 08:59:00;;;;;;;4.47;1.45;;;;;;;;;;5051187;28;20468;-40
2021/08/16 09:01:27;;;;;;;2.70;1.00;;;;;;;;;;5051426;28;20024;-42
2021/08/16 09:03:55;;;;;;;1.52;0.77;;;;;;;;;;5051251;28;20700;-45
2021/08/16 09:06:31;;;;;;;5.55;2.03;;;;;;;;;;5045879;28;20439;-41
2021/08/16 09:08:59;;;;;;;3.65;1.30;;;;;;;;;;5051114;28;20031;-42
2021/08/16 09:11:27;;;;;;;2.33;1.00;;;;;;;;;;5051239;28;20036;-39
2021/08/16 09:13:57;;;;;;;4.85;1.20;;;;;;;;;;5050945;28;20021;-35
2021/08/16 09:16:25;;;;;;;2.67;1.27;;;;;;;;;;5050946;28;20484;-40
2021/08/16 09:18:52;;;;;;;1.88;1.05;;;;;;;;;;5051093;28;20029;-34
2021/08/16 09:21:25;;;;;;;3.83;1.40;;;;;;;;;;5050643;28;20013;-36
2021/08/16 09:23:54;;;;;;;3.45;1.25;;;;;;;;;;5051026;28;20500;-45
2021/08/16 09:26:25;;;;;;;4.00;1.70;;;;;;;;;;5050600;28;20500;-34
2021/08/16 09:28:53;;;;;;;1.98;1.05;;;;;;;;;;5051047;28;20033;-34
2021/08/16 09:31:23;;;;;;;3.78;1.20;;;;;;;;;;5050681;28;20027;-34
2021/08/16 09:33:53;;;;;;;5.97;1.05;;;;;;;;;;5050548;28;20059;-34
2021/08/16 09:36:20;;;;;;;5.00;1.27;;;;;;;;;;5050544;28;20044;-34
2021/08/16 09:38:47;;;;;;;3.50;1.10;;;;;;;;;;5050763;28;20033;-34
2021/08/16 09:41:21;;;;;;;7.55;1.48;;;;;;;;;;5051017;28;20024;-34
2021/08/16 09:43:48;;;;;;;3.08;0.95;;;;;;;;;;5050681;28;20017;-35
2021/08/16 09:46:16;;;;;;;5.55;1.33;;;;;;;;;;5049690;28;20021;-34
2021/08/16 09:48:44;;;;;;;3.08;1.20;;;;;;;;;;5050244;28;20029;-35
2021/08/16 09:51:21;;;;;;;3.22;1.25;;;;;;;;;;5050459;28;20017;-34
2021/08/16 09:53:49;;;;;;;2.88;1.17;;;;;;;;;;5049413;28;20499;-35
2021/08/16 09:56:21;;;;;;;2.53;1.15;;;;;;;;;;5050531;28;20021;-35
2021/08/16 09:58:49;;;;;;;3.13;1.20;;;;;;;;;;5049959;28;20016;-38
2021/08/16 10:01:16;;;;;;;3.08;1.38;;;;;;;;;;5050396;28;20099;-34
2021/08/16 10:03:44;;;;;;;2.97;1.08;;;;;;;;;;5050773;28;20477;-44
2021/08/16 10:06:14;;;;;;;2.30;1.17;;;;;;;;;;5050255;28;20028;-38
2021/08/16 10:08:44;;;;;;;3.85;1.20;;;;;;;;;;5050294;28;20539;-34
2021/08/16 10:11:16;;;;;;;4.07;1.30;;;;;;;;;;5050506;28;20477;-43
2021/08/16 10:13:45;;;;;;;3.05;1.00;;;;;;;;;;5050392;28;20019;-39
2021/08/16 10:16:14;;;;;;;3.35;1.10;;;;;;;;;;5050459;28;20021;-57
2021/08/16 10:18:45;;;;;;;2.35;1.17;;;;;;;;;;5050013;28;20087;-58
2021/08/16 10:21:17;;;;;;;3.42;1.23;;;;;;;;;;5047901;28;20021;-56
2021/08/16 10:23:48;;;;;;;6.00;1.13;;;;;;;;;;5050348;28;20028;-42
2021/08/16 10:26:25;;;;;;;2.00;0.95;;;;;;;;;;5049686;28;20013;-58
2021/08/16 10:28:59;;;;;;;3.70;1.20;;;;;;;;;;5050053;28;20033;-57
2021/08/16 10:31:27;;;;;;;3.78;1.25;;;;;;;;;;5049897;28;20025;-53
2021/08/16 10:33:54;;;;;;;3.10;1.20;;;;;;;;;;5050269;28;20017;-50
2021/08/16 10:36:22;;;;;;;3.65;0.98;;;;;;;;;;5049982;28;20128;-51
2021/08/16 10:39:02;;;;;;;1.67;0.80;;;;;;;;;;5049832;28;20013;-51
2021/08/16 10:41:30;;;;;;;3.60;1.05;;;;;;;;;;5049969;28;20021;-55
2021/08/16 10:43:58;;;;;;;3.10;1.13;;;;;;;;;;5050197;28;20013;-39
2021/08/16 10:46:25;;;;;;;2.33;1.27;;;;;;;;;;5050045;28;20415;-52
2021/08/16 10:49:05;;;;;;;4.57;1.10;;;;;;;;;;5049885;28;20025;-49
2021/08/16 10:51:39;;;;;;;1.58;1.00;;;;;;;;;;5048142;28;20029;-45
2021/08/16 10:54:06;;;;;;;2.05;0.95;;;;;;;;;;5050028;28;20088;-57
2021/08/16 10:56:33;;;;;;;6.22;1.40;;;;;;;;;;5049974;28;20017;-54
2021/08/16 10:59:01;;;;;;;2.30;1.10;;;;;;;;;;5053360;28;20021;-47
2021/08/16 11:01:37;;;;;;;2.50;1.20;;;;;;;;;;5054192;28;20074;-45
2021/08/16 11:04:06;;;;;;;3.90;1.10;;;;;;;;;;5053983;28;20375;-42
2021/08/16 11:06:33;;;;;;;3.70;1.50;;;;;;;;;;5054017;28;20053;-33
2021/08/16 11:09:01;;;;;;;3.35;1.15;;;;;;;;;;5053757;28;20035;-34
2021/08/16 11:11:29;;;;;;;5.63;1.30;;;;;;;;;;5053945;28;20043;-34
2021/08/16 11:14:23;;;;;;;1.55;0.90;;;;;;;;;;5053771;28;20021;-34
2021/08/16 11:16:51;;;;;;;2.63;1.27;;;;;;;;;;5045931;28;20138;-35
2021/08/16 11:19:19;;;;;;;3.00;1.30;;;;;;;;;;5053743;28;20051;-34
2021/08/16 11:22:02;;;;;;;2.70;1.20;;;;;;;;;;5053803;28;20068;-34
2021/08/16 11:24:36;;;;;;;1.80;0.90;;;;;;;;;;5053607;28;20481;-34
2021/08/16 11:27:08;;;;;;;2.97;1.27;;;;;;;;;;5053403;28;20033;-35
2021/08/16 11:29:36;;;;;;;3.10;1.20;;;;;;;;;;5053444;28;20104;-34
2021/08/16 11:32:05;;;;;;;2.08;1.23;;;;;;;;;;5053366;28;20025;-40
2021/08/16 11:34:47;;;;;;;5.28;1.40;;;;;;;;;;5053478;28;20108;-38
2021/08/16 11:37:14;;;;;;;2.70;1.10;;;;;;;;;;5053531;28;20041;-36
2021/08/16 11:39:41;;;;;;;2.65;1.10;;;;;;;;;;5053190;28;20017;-40
2021/08/16 11:42:09;;;;;;;2.65;1.10;;;;;;;;;;5053484;28;20025;-41
2021/08/16 11:44:36;;;;;;;3.03;1.20;;;;;;;;;;5053418;28;20013;-45
2021/08/16 11:47:04;;;;;;;2.47;1.17;;;;;;;;;;5053048;28;20117;-37
2021/08/16 11:49:42;;;;;;;6.43;1.10;;;;;;;;;;5053032;28;20127;-39
2021/08/16 11:52:09;;;;;;;2.92;0.90;;;;;;;;;;5053057;28;20048;-38
2021/08/16 11:54:37;;;;;;;3.63;1.13;;;;;;;;;;5053023;28;20017;-39
2021/08/16 11:57:06;;;;;;;9.40;1.35;;;;;;;;;;5052925;28;20108;-52
2021/08/16 11:59:33;;;;;;;2.50;1.00;;;;;;;;;;5039169;28;20027;-36
2021/08/16 12:02:04;;;;;;;4.68;1.38;;;;;;;;;;5052676;28;20021;-34
2021/08/16 12:04:36;;;;;;;4.07;1.13;;;;;;;;;;5052776;28;20031;-34
2021/08/16 12:07:03;;;;;;;2.50;1.05;;;;;;;;;;5052681;28;20492;-35
2021/08/16 12:09:34;;;;;;;1.90;1.15;;;;;;;;;;5051655;28;20377;-45
2021/08/16 12:12:02;;;;;;;4.72;1.00;;;;;;;;;;5052976;28;20530;-44
2021/08/16 12:14:30;;;;;;;1.85;1.00;;;;;;;;;;5052465;28;20028;-46
2021/08/16 12:16:57;;;;;;;4.35;1.25;;;;;;;;;;5052658;28;20370;-51
2021/08/16 12:19:25;;;;;;;4.55;1.27;;;;;;;;;;5052894;28;20017;-46
2021/08/16 12:22:05;;;;;;;4.57;1.30;;;;;;;;;;5052262;28;20025;-54
2021/08/16 12:24:33;;;;;;;4.78;1.38;;;;;;;;;;5052275;28;20028;-39
2021/08/16 12:27:01;;;;;;;2.78;1.15;;;;;;;;;;5052339;28;20025;-41
2021/08/16 12:29:28;;;;;;;5.28;2.08;;;;;;;;;;5052440;28;20056;-38
2021/08/16 12:31:56;;;;;;;3.92;1.17;;;;;;;;;;5052392;28;20104;-51
2021/08/16 12:34:32;;;;;;;7.45;1.35;;;;;;;;;;5052261;28;20036;-45
2021/08/16 12:36:59;;;;;;;2.45;1.10;;;;;;;;;;5052215;28;20497;-34
2021/08/16 12:39:33;;;;;;;6.15;1.30;;;;;;;;;;5052522;28;20464;-45
2021/08/16 12:42:09;;;;;;;6.57;1.25;;;;;;;;;;5052025;28;20029;-47
2021/08/16 12:44:43;;;;;;;6.43;1.25;;;;;;;;;;5052293;28;20048;-39
2021/08/16 12:47:10;;;;;;;4.72;1.20;;;;;;;;;;5051998;28;20108;-44
2021/08/16 12:49:37;;;;;;;3.63;1.27;;;;;;;;;;5052141;28;20504;-44
2021/08/16 12:52:04;;;;;;;3.50;1.17;;;;;;;;;;5051903;28;20021;-48
2021/08/16 12:54:34;;;;;;;3.13;1.17;;;;;;;;;;5052138;28;20046;-55
2021/08/16 12:57:01;;;;;;;3.13;1.20;;;;;;;;;;5051840;28;20033;-47
2021/08/16 12:59:28;;;;;;;4.53;1.40;;;;;;;;;;5051632;28;20096;-45
2021/08/16 13:01:57;;;;;;;4.72;1.55;;;;;;;;;;5050669;28;20025;-43
2021/08/16 13:04:24;;;;;;;4.50;1.42;;;;;;;;;;5051840;28;20021;-46
2021/08/16 13:06:51;;;;;;;6.32;1.70;;;;;;;;;;5051757;28;20112;-53
2021/08/16 13:09:18;;;;;;;6.30;1.65;;;;;;;;;;5051600;28;20029;-54
2021/08/16 13:11:45;;;;;;;4.60;1.30;;;;;;;;;;5051936;28;20066;-48
2021/08/16 13:14:12;;;;;;;7.57;1.38;;;;;;;;;;5051454;28;20035;-43
2021/08/16 13:16:39;;;;;;;8.15;1.30;;;;;;;;;;5051728;28;20021;-43
2021/08/16 13:19:06;;;;;;;7.22;1.48;;;;;;;;;;5050498;28;20024;-54
2021/08/16 13:21:33;;;;;;;7.72;1.38;;;;;;;;;;5049816;28;20113;-37
2021/08/16 13:24:00;;;;;;;3.55;1.50;;;;;;;;;;5051570;28;20049;-41
2021/08/16 13:26:27;;;;;;;6.40;1.30;;;;;;;;;;5051398;28;20071;-47
2021/08/16 13:28:54;;;;;;;10.02;1.40;;;;;;;;;;5050042;28;20039;-51
2021/08/16 13:31:21;;;;;;;6.15;1.70;;;;;;;;;;5051112;28;20075;-38
2021/08/16 13:33:48;;;;;;;11.43;1.95;;;;;;;;;;5049848;28;20504;-35
2021/08/16 13:36:15;;;;;;;9.88;1.60;;;;;;;;;;5050814;28;20049;-58
2021/08/16 13:38:42;;;;;;;9.45;2.38;;;;;;;;;;5051065;28;20029;-42
2021/08/16 13:41:09;;;;;;;9.63;1.50;;;;;;;;;;5050870;28;20025;-52
2021/08/16 13:43:36;;;;;;;9.95;1.70;;;;;;;;;;5050481;28;20099;-53
2021/08/16 13:46:03;;;;;;;11.05;2.03;;;;;;;;;;5048628;28;20029;-41
2021/08/16 13:48:30;;;;;;;17.42;2.47;;;;;;;;;;5047498;28;20044;-46
2021/08/16 13:50:57;;;;;;;16.85;1.73;;;;;;;;;;5046567;28;20428;-40
2021/08/16 13:53:24;;;;;;;9.13;1.70;;;;;;;;;;5049205;28;20032;-54
2021/08/16 13:55:52;;;;;;;9.82;2.03;;;;;;;;;;5044641;28;20028;-34
2021/08/16 13:58:18;;;;;;;6.93;2.10;;;;;;;;;;5047024;28;20688;-35
2021/08/16 14:00:46;;;;;;;15.50;2.50;;;;;;;;;;5047655;28;20021;-34
2021/08/16 14:03:12;;;;;;;7.05;1.75;;;;;;;;;;5048407;28;20036;-34
2021/08/16 14:05:40;;;;;;;12.88;2.28;;;;;;;;;;5049120;28;20424;-34
2021/08/16 14:08:08;;;;;;;15.25;3.10;;;;;;;;;;5044199;28;20136;-47
2021/08/16 14:10:35;;;;;;;20.02;2.13;;;;;;;;;;5043460;28;20132;-34
2021/08/16 14:13:02;;;;;;;10.65;2.00;;;;;;;;;;5048145;28;20033;-34
2021/08/16 14:15:29;;;;;;;13.98;2.67;;;;;;;;;;5050204;28;20017;-37
2021/08/16 14:17:56;;;;;;;14.75;2.42;;;;;;;;;;5047930;28;20056;-34
2021/08/16 14:20:23;;;;;;;12.65;2.55;;;;;;;;;;5048743;28;20017;-36
2021/08/16 14:22:51;;;;;;;19.42;2.78;;;;;;;;;;5045459;28;20481;-34
2021/08/16 14:25:18;;;;;;;16.17;3.20;;;;;;;;;;5047276;28;20045;-34
2021/08/16 14:27:45;;;;;;;17.85;2.97;;;;;;;;;;5047554;28;20675;-39
2021/08/16 14:30:12;;;;;;;38.05;4.32;;;;;;;;;;5047792;28;20048;-34
2021/08/16 14:32:39;;;;;;;25.15;3.70;;;;;;;;;;5050432;28;20036;-34
2021/08/16 14:35:07;;;;;;;48.75;4.80;;;;;;;;;;5050878;28;20033;-54
2021/08/16 14:37:34;;;;;;;41.03;4.70;;;;;;;;;;5052220;28;20036;-38
2021/08/16 14:40:01;;;;;;;31.13;3.92;;;;;;;;;;5038427;28;20088;-37
2021/08/16 14:42:28;;;;;;;45.65;6.18;;;;;;;;;;5052253;28;20029;-50